sensor_id;sensor_type;location;lat;lon;timestamp;temperature;humidity
10057;DHT22;5068;51.286;7.518;2023-06-10T00:00:17;15.40;56.40
10057;DHT22;5068;51.286;7.518;2023-06-10T00:01:53;15.40;56.70
10057;DHT22;5068;51.286;7.518;2023-06-10T00:03:30;15.40;56.60
10057;DHT22;5068;51.286;7.518;2023-06-10T00:05:06;15.30;56.40
10057;DHT22;5068;51.286;7.518;2023-06-10T00:06:46;15.30;56.60
10057;DHT22;5068;51.286;7.518;2023-06-10T00:08:26;15.30;56.60
10057;DHT22;5068;51.286;7.518;2023-06-10T00:10:03;15.30;56.50
10057;DHT22;5068;51.286;7.518;2023-06-10T00:11:40;15.20;56.60
10057;DHT22;5068;51.286;7.518;2023-06-10T00:13:13;15.20;56.50
10057;DHT22;5068;51.286;7.518;2023-06-10T00:14:48;15.20;56.60
10057;DHT22;5068;51.286;7.518;2023-06-10T00:16:22;15.10;56.50
10057;DHT22;5068;51.286;7.518;2023-06-10T00:17:57;15.20;56.80
10057;DHT22;5068;51.286;7.518;2023-06-10T00:19:33;15.10;56.80
10057;DHT22;5068;51.286;7.518;2023-06-10T00:21:07;15.10;56.80
10057;DHT22;5068;51.286;7.518;2023-06-10T00:22:43;15.00;56.70
10057;DHT22;5068;51.286;7.518;2023-06-10T00:24:18;15.00;56.80
10057;DHT22;5068;51.286;7.518;2023-06-10T00:25:51;15.00;57.10
10057;DHT22;5068;51.286;7.518;2023-06-10T00:27:25;15.00;56.60
10057;DHT22;5068;51.286;7.518;2023-06-10T00:29:03;15.00;56.70
10057;DHT22;5068;51.286;7.518;2023-06-10T00:30:37;14.90;56.80
10057;DHT22;5068;51.286;7.518;2023-06-10T00:32:14;14.90;56.90
10057;DHT22;5068;51.286;7.518;2023-06-10T00:33:49;14.90;57.00
10057;DHT22;5068;51.286;7.518;2023-06-10T00:35:22;14.80;56.90
10057;DHT22;5068;51.286;7.518;2023-06-10T00:36:57;14.80;57.20
10057;DHT22;5068;51.286;7.518;2023-06-10T00:38:29;14.80;56.80
10057;DHT22;5068;51.286;7.518;2023-06-10T00:40:04;14.80;56.90
10057;DHT22;5068;51.286;7.518;2023-06-10T00:41:41;14.80;57.20
10057;DHT22;5068;51.286;7.518;2023-06-10T00:43:15;14.80;57.10
10057;DHT22;5068;51.286;7.518;2023-06-10T00:44:49;14.70;58.00
10057;DHT22;5068;51.286;7.518;2023-06-10T00:46:23;14.70;57.00
10057;DHT22;5068;51.286;7.518;2023-06-10T00:48:02;14.70;57.30
10057;DHT22;5068;51.286;7.518;2023-06-10T00:49:38;14.60;57.20
10057;DHT22;5068;51.286;7.518;2023-06-10T00:51:12;14.70;57.40
10057;DHT22;5068;51.286;7.518;2023-06-10T00:52:46;14.60;57.30
10057;DHT22;5068;51.286;7.518;2023-06-10T00:54:21;14.50;57.20
10057;DHT22;5068;51.286;7.518;2023-06-10T00:55:54;14.50;57.40
10057;DHT22;5068;51.286;7.518;2023-06-10T00:57:29;14.50;57.40
10057;DHT22;5068;51.286;7.518;2023-06-10T00:59:04;14.40;57.30
10057;DHT22;5068;51.286;7.518;2023-06-10T01:00:37;14.40;57.60
10057;DHT22;5068;51.286;7.518;2023-06-10T01:02:10;14.40;57.10
10057;DHT22;5068;51.286;7.518;2023-06-10T01:03:44;14.40;57.30
10057;DHT22;5068;51.286;7.518;2023-06-10T01:05:19;14.50;57.40
10057;DHT22;5068;51.286;7.518;2023-06-10T01:07:03;14.30;57.30
10057;DHT22;5068;51.286;7.518;2023-06-10T01:08:50;14.30;57.80
10057;DHT22;5068;51.286;7.518;2023-06-10T01:10:38;14.30;57.80
10057;DHT22;5068;51.286;7.518;2023-06-10T01:12:22;14.20;57.80
10057;DHT22;5068;51.286;7.518;2023-06-10T01:14:03;14.20;57.70
10057;DHT22;5068;51.286;7.518;2023-06-10T01:15:39;14.20;57.60
10057;DHT22;5068;51.286;7.518;2023-06-10T01:17:12;14.20;57.60
10057;DHT22;5068;51.286;7.518;2023-06-10T01:18:49;14.10;57.70
10057;DHT22;5068;51.286;7.518;2023-06-10T01:20:26;14.10;57.50
10057;DHT22;5068;51.286;7.518;2023-06-10T01:22:03;14.20;57.80
10057;DHT22;5068;51.286;7.518;2023-06-10T01:23:37;14.10;57.90
10057;DHT22;5068;51.286;7.518;2023-06-10T01:25:11;14.00;57.80
10057;DHT22;5068;51.286;7.518;2023-06-10T01:26:50;14.00;57.90
10057;DHT22;5068;51.286;7.518;2023-06-10T01:28:29;14.00;58.00
10057;DHT22;5068;51.286;7.518;2023-06-10T01:30:11;14.00;58.10
10057;DHT22;5068;51.286;7.518;2023-06-10T01:31:51;13.90;58.20
10057;DHT22;5068;51.286;7.518;2023-06-10T01:33:36;13.90;58.00
10057;DHT22;5068;51.286;7.518;2023-06-10T01:35:12;13.90;58.20
10057;DHT22;5068;51.286;7.518;2023-06-10T01:36:48;13.90;58.10
10057;DHT22;5068;51.286;7.518;2023-06-10T01:38:24;13.80;58.20
10057;DHT22;5068;51.286;7.518;2023-06-10T01:40:00;13.90;58.30
10057;DHT22;5068;51.286;7.518;2023-06-10T01:41:35;13.80;58.20
10057;DHT22;5068;51.286;7.518;2023-06-10T01:43:10;13.80;58.20
10057;DHT22;5068;51.286;7.518;2023-06-10T01:44:44;13.70;57.90
10057;DHT22;5068;51.286;7.518;2023-06-10T01:46:17;13.70;57.80
10057;DHT22;5068;51.286;7.518;2023-06-10T01:47:52;13.70;57.80
10057;DHT22;5068;51.286;7.518;2023-06-10T01:49:25;13.70;58.00
10057;DHT22;5068;51.286;7.518;2023-06-10T01:51:00;13.70;58.20
10057;DHT22;5068;51.286;7.518;2023-06-10T01:52:33;13.70;58.40
10057;DHT22;5068;51.286;7.518;2023-06-10T01:54:07;13.60;57.90
10057;DHT22;5068;51.286;7.518;2023-06-10T01:55:41;13.60;57.90
10057;DHT22;5068;51.286;7.518;2023-06-10T01:57:14;13.60;58.30
10057;DHT22;5068;51.286;7.518;2023-06-10T01:58:47;13.50;57.90
10057;DHT22;5068;51.286;7.518;2023-06-10T02:00:21;13.60;58.50
10057;DHT22;5068;51.286;7.518;2023-06-10T02:01:55;13.70;58.10
10057;DHT22;5068;51.286;7.518;2023-06-10T02:03:28;13.50;57.90
10057;DHT22;5068;51.286;7.518;2023-06-10T02:05:01;13.50;58.00
10057;DHT22;5068;51.286;7.518;2023-06-10T02:06:35;13.50;58.30
10057;DHT22;5068;51.286;7.518;2023-06-10T02:08:09;13.40;58.10
10057;DHT22;5068;51.286;7.518;2023-06-10T02:09:44;13.40;58.30
10057;DHT22;5068;51.286;7.518;2023-06-10T02:11:18;13.50;58.30
10057;DHT22;5068;51.286;7.518;2023-06-10T02:12:51;13.40;58.00
10057;DHT22;5068;51.286;7.518;2023-06-10T02:14:25;13.30;58.10
10057;DHT22;5068;51.286;7.518;2023-06-10T02:15:58;13.30;58.10
10057;DHT22;5068;51.286;7.518;2023-06-10T02:17:33;13.30;58.20
10057;DHT22;5068;51.286;7.518;2023-06-10T02:19:08;13.30;58.30
10057;DHT22;5068;51.286;7.518;2023-06-10T02:20:41;13.30;58.30
10057;DHT22;5068;51.286;7.518;2023-06-10T02:22:15;13.30;58.30
10057;DHT22;5068;51.286;7.518;2023-06-10T02:23:48;13.20;57.90
10057;DHT22;5068;51.286;7.518;2023-06-10T02:25:22;13.30;58.30
10057;DHT22;5068;51.286;7.518;2023-06-10T02:26:55;13.30;58.40
10057;DHT22;5068;51.286;7.518;2023-06-10T02:28:32;13.10;58.00
10057;DHT22;5068;51.286;7.518;2023-06-10T02:30:07;13.10;58.20
10057;DHT22;5068;51.286;7.518;2023-06-10T02:31:42;13.10;58.50
10057;DHT22;5068;51.286;7.518;2023-06-10T02:33:16;13.10;58.50
10057;DHT22;5068;51.286;7.518;2023-06-10T02:34:49;13.10;58.50
10057;DHT22;5068;51.286;7.518;2023-06-10T02:36:23;13.10;58.40
10057;DHT22;5068;51.286;7.518;2023-06-10T02:37:59;13.00;58.40
10057;DHT22;5068;51.286;7.518;2023-06-10T02:39:33;13.00;58.50
10057;DHT22;5068;51.286;7.518;2023-06-10T02:41:12;13.00;59.20
10057;DHT22;5068;51.286;7.518;2023-06-10T02:42:46;13.00;58.60
10057;DHT22;5068;51.286;7.518;2023-06-10T02:44:20;12.90;58.60
10057;DHT22;5068;51.286;7.518;2023-06-10T02:45:54;13.00;58.80
10057;DHT22;5068;51.286;7.518;2023-06-10T02:47:28;13.00;58.70
10057;DHT22;5068;51.286;7.518;2023-06-10T02:49:01;12.90;58.70
10057;DHT22;5068;51.286;7.518;2023-06-10T02:50:34;12.90;58.40
10057;DHT22;5068;51.286;7.518;2023-06-10T02:52:15;12.90;58.90
10057;DHT22;5068;51.286;7.518;2023-06-10T02:53:49;12.80;58.70
10057;DHT22;5068;51.286;7.518;2023-06-10T02:55:22;12.90;58.80
10057;DHT22;5068;51.286;7.518;2023-06-10T02:57:05;13.00;59.00
10057;DHT22;5068;51.286;7.518;2023-06-10T02:58:40;12.80;59.70
10057;DHT22;5068;51.286;7.518;2023-06-10T03:00:18;12.80;58.80
10057;DHT22;5068;51.286;7.518;2023-06-10T03:01:54;12.80;58.70
10057;DHT22;5068;51.286;7.518;2023-06-10T03:03:29;12.80;58.80
10057;DHT22;5068;51.286;7.518;2023-06-10T03:05:10;12.80;58.80
10057;DHT22;5068;51.286;7.518;2023-06-10T03:06:48;12.70;58.60
10057;DHT22;5068;51.286;7.518;2023-06-10T03:08:27;12.70;58.50
10057;DHT22;5068;51.286;7.518;2023-06-10T03:10:02;12.70;58.70
10057;DHT22;5068;51.286;7.518;2023-06-10T03:11:37;12.70;58.90
10057;DHT22;5068;51.286;7.518;2023-06-10T03:13:11;12.80;58.90
10057;DHT22;5068;51.286;7.518;2023-06-10T03:14:46;12.60;58.80
10057;DHT22;5068;51.286;7.518;2023-06-10T03:16:19;12.60;58.70
10057;DHT22;5068;51.286;7.518;2023-06-10T03:17:53;12.60;58.60
10057;DHT22;5068;51.286;7.518;2023-06-10T03:19:27;12.60;58.80
10057;DHT22;5068;51.286;7.518;2023-06-10T03:21:01;12.50;58.80
10057;DHT22;5068;51.286;7.518;2023-06-10T03:22:35;12.70;59.10
10057;DHT22;5068;51.286;7.518;2023-06-10T03:24:13;12.50;59.20
10057;DHT22;5068;51.286;7.518;2023-06-10T03:25:46;12.50;59.10
10057;DHT22;5068;51.286;7.518;2023-06-10T03:27:22;12.50;59.00
10057;DHT22;5068;51.286;7.518;2023-06-10T03:29:00;12.50;59.10
10057;DHT22;5068;51.286;7.518;2023-06-10T03:30:34;12.40;59.00
10057;DHT22;5068;51.286;7.518;2023-06-10T03:32:08;12.40;58.90
10057;DHT22;5068;51.286;7.518;2023-06-10T03:33:43;12.40;59.10
10057;DHT22;5068;51.286;7.518;2023-06-10T03:35:16;12.40;59.10
10057;DHT22;5068;51.286;7.518;2023-06-10T03:36:50;12.50;59.20
10057;DHT22;5068;51.286;7.518;2023-06-10T03:38:24;12.40;59.30
10057;DHT22;5068;51.286;7.518;2023-06-10T03:39:58;12.30;59.10
10057;DHT22;5068;51.286;7.518;2023-06-10T03:41:31;12.30;59.10
10057;DHT22;5068;51.286;7.518;2023-06-10T03:43:05;12.30;59.30
10057;DHT22;5068;51.286;7.518;2023-06-10T03:44:39;12.30;59.30
10057;DHT22;5068;51.286;7.518;2023-06-10T03:46:14;12.30;59.30
10057;DHT22;5068;51.286;7.518;2023-06-10T03:47:50;12.30;59.70
10057;DHT22;5068;51.286;7.518;2023-06-10T03:49:31;12.30;59.70
10057;DHT22;5068;51.286;7.518;2023-06-10T03:51:06;12.20;59.40
10057;DHT22;5068;51.286;7.518;2023-06-10T03:52:40;12.20;59.60
10057;DHT22;5068;51.286;7.518;2023-06-10T03:54:15;12.20;59.60
10057;DHT22;5068;51.286;7.518;2023-06-10T03:55:48;12.20;59.60
10057;DHT22;5068;51.286;7.518;2023-06-10T03:57:25;12.20;59.40
10057;DHT22;5068;51.286;7.518;2023-06-10T03:58:59;12.10;59.60
10057;DHT22;5068;51.286;7.518;2023-06-10T04:00:34;12.10;59.50
10057;DHT22;5068;51.286;7.518;2023-06-10T04:02:13;12.10;59.50
10057;DHT22;5068;51.286;7.518;2023-06-10T04:03:46;12.10;59.60
10057;DHT22;5068;51.286;7.518;2023-06-10T04:05:21;12.10;59.50
10057;DHT22;5068;51.286;7.518;2023-06-10T04:06:56;12.10;59.70
10057;DHT22;5068;51.286;7.518;2023-06-10T04:08:31;12.10;59.80
10057;DHT22;5068;51.286;7.518;2023-06-10T04:10:06;12.10;59.90
10057;DHT22;5068;51.286;7.518;2023-06-10T04:11:41;12.10;60.30
10057;DHT22;5068;51.286;7.518;2023-06-10T04:13:15;12.10;60.00
10057;DHT22;5068;51.286;7.518;2023-06-10T04:14:57;12.10;60.00
10057;DHT22;5068;51.286;7.518;2023-06-10T04:16:33;12.00;59.90
10057;DHT22;5068;51.286;7.518;2023-06-10T04:18:08;12.10;60.40
10057;DHT22;5068;51.286;7.518;2023-06-10T04:19:41;12.00;60.20
10057;DHT22;5068;51.286;7.518;2023-06-10T04:21:14;12.00;60.20
10057;DHT22;5068;51.286;7.518;2023-06-10T04:22:48;12.00;60.20
10057;DHT22;5068;51.286;7.518;2023-06-10T04:24:22;12.00;60.10
10057;DHT22;5068;51.286;7.518;2023-06-10T04:25:55;12.00;60.40
10057;DHT22;5068;51.286;7.518;2023-06-10T04:27:30;12.00;60.60
10057;DHT22;5068;51.286;7.518;2023-06-10T04:29:04;12.00;60.70
10057;DHT22;5068;51.286;7.518;2023-06-10T04:30:38;12.00;60.70
10057;DHT22;5068;51.286;7.518;2023-06-10T04:32:12;12.00;61.20
10057;DHT22;5068;51.286;7.518;2023-06-10T04:33:46;12.10;61.50
10057;DHT22;5068;51.286;7.518;2023-06-10T04:35:20;12.00;61.40
10057;DHT22;5068;51.286;7.518;2023-06-10T04:36:53;12.00;61.40
10057;DHT22;5068;51.286;7.518;2023-06-10T04:38:27;12.00;61.50
10057;DHT22;5068;51.286;7.518;2023-06-10T04:40:05;12.00;61.80
10057;DHT22;5068;51.286;7.518;2023-06-10T04:41:39;12.10;62.30
10057;DHT22;5068;51.286;7.518;2023-06-10T04:43:13;12.00;61.90
10057;DHT22;5068;51.286;7.518;2023-06-10T04:44:48;12.10;62.30
10057;DHT22;5068;51.286;7.518;2023-06-10T04:46:21;12.20;62.40
10057;DHT22;5068;51.286;7.518;2023-06-10T04:47:56;12.10;62.70
10057;DHT22;5068;51.286;7.518;2023-06-10T04:49:31;12.10;62.80
10057;DHT22;5068;51.286;7.518;2023-06-10T04:51:06;12.10;62.80
10057;DHT22;5068;51.286;7.518;2023-06-10T04:52:40;12.10;62.90
10057;DHT22;5068;51.286;7.518;2023-06-10T04:54:14;12.20;63.10
10057;DHT22;5068;51.286;7.518;2023-06-10T04:55:48;12.20;63.20
10057;DHT22;5068;51.286;7.518;2023-06-10T04:57:21;12.20;63.30
10057;DHT22;5068;51.286;7.518;2023-06-10T04:58:55;12.30;63.20
10057;DHT22;5068;51.286;7.518;2023-06-10T05:00:28;12.30;63.60
10057;DHT22;5068;51.286;7.518;2023-06-10T05:02:02;12.30;63.70
10057;DHT22;5068;51.286;7.518;2023-06-10T05:03:37;12.40;64.20
10057;DHT22;5068;51.286;7.518;2023-06-10T05:05:11;12.50;64.10
10057;DHT22;5068;51.286;7.518;2023-06-10T05:06:44;12.40;64.00
10057;DHT22;5068;51.286;7.518;2023-06-10T05:08:18;12.50;64.10
10057;DHT22;5068;51.286;7.518;2023-06-10T05:09:51;12.50;64.00
10057;DHT22;5068;51.286;7.518;2023-06-10T05:11:24;12.60;63.60
10057;DHT22;5068;51.286;7.518;2023-06-10T05:12:58;12.60;64.10
10057;DHT22;5068;51.286;7.518;2023-06-10T05:14:31;12.70;64.20
10057;DHT22;5068;51.286;7.518;2023-06-10T05:16:05;12.80;64.60
10057;DHT22;5068;51.286;7.518;2023-06-10T05:17:39;12.90;64.50
10057;DHT22;5068;51.286;7.518;2023-06-10T05:19:14;12.80;64.80
10057;DHT22;5068;51.286;7.518;2023-06-10T05:20:49;12.80;64.70
10057;DHT22;5068;51.286;7.518;2023-06-10T05:22:23;12.90;64.50
10057;DHT22;5068;51.286;7.518;2023-06-10T05:23:56;12.90;64.60
10057;DHT22;5068;51.286;7.518;2023-06-10T05:25:30;12.90;64.40
10057;DHT22;5068;51.286;7.518;2023-06-10T05:27:05;13.10;64.90
10057;DHT22;5068;51.286;7.518;2023-06-10T05:28:38;13.10;65.00
10057;DHT22;5068;51.286;7.518;2023-06-10T05:30:12;13.10;64.90
10057;DHT22;5068;51.286;7.518;2023-06-10T05:31:46;13.20;65.00
10057;DHT22;5068;51.286;7.518;2023-06-10T05:33:19;13.20;65.00
10057;DHT22;5068;51.286;7.518;2023-06-10T05:34:54;13.30;65.30
10057;DHT22;5068;51.286;7.518;2023-06-10T05:36:28;13.30;65.00
10057;DHT22;5068;51.286;7.518;2023-06-10T05:38:01;13.50;65.00
10057;DHT22;5068;51.286;7.518;2023-06-10T05:39:35;13.50;65.40
10057;DHT22;5068;51.286;7.518;2023-06-10T05:41:10;13.50;65.20
10057;DHT22;5068;51.286;7.518;2023-06-10T05:42:43;13.60;64.90
10057;DHT22;5068;51.286;7.518;2023-06-10T05:44:17;13.60;65.00
10057;DHT22;5068;51.286;7.518;2023-06-10T05:45:50;13.70;65.00
10057;DHT22;5068;51.286;7.518;2023-06-10T05:47:24;13.80;64.90
10057;DHT22;5068;51.286;7.518;2023-06-10T05:48:57;13.80;64.90
10057;DHT22;5068;51.286;7.518;2023-06-10T05:50:33;13.90;65.00
10057;DHT22;5068;51.286;7.518;2023-06-10T05:52:10;13.90;65.30
10057;DHT22;5068;51.286;7.518;2023-06-10T05:53:43;14.00;65.10
10057;DHT22;5068;51.286;7.518;2023-06-10T05:55:18;14.00;64.90
10057;DHT22;5068;51.286;7.518;2023-06-10T05:56:51;14.10;65.20
10057;DHT22;5068;51.286;7.518;2023-06-10T05:58:25;14.30;64.80
10057;DHT22;5068;51.286;7.518;2023-06-10T05:59:58;14.20;64.30
10057;DHT22;5068;51.286;7.518;2023-06-10T06:01:32;14.30;64.60
10057;DHT22;5068;51.286;7.518;2023-06-10T06:03:06;14.40;64.50
10057;DHT22;5068;51.286;7.518;2023-06-10T06:04:40;14.40;64.50
10057;DHT22;5068;51.286;7.518;2023-06-10T06:06:16;14.50;64.40
10057;DHT22;5068;51.286;7.518;2023-06-10T06:07:48;14.50;64.40
10057;DHT22;5068;51.286;7.518;2023-06-10T06:09:22;14.60;64.50
10057;DHT22;5068;51.286;7.518;2023-06-10T06:10:55;14.60;64.20
10057;DHT22;5068;51.286;7.518;2023-06-10T06:12:29;14.70;64.20
10057;DHT22;5068;51.286;7.518;2023-06-10T06:14:02;14.80;64.40
10057;DHT22;5068;51.286;7.518;2023-06-10T06:15:35;14.80;64.20
10057;DHT22;5068;51.286;7.518;2023-06-10T06:17:09;14.90;64.40
10057;DHT22;5068;51.286;7.518;2023-06-10T06:18:43;15.10;64.40
10057;DHT22;5068;51.286;7.518;2023-06-10T06:20:16;15.00;63.90
10057;DHT22;5068;51.286;7.518;2023-06-10T06:21:52;15.20;64.20
10057;DHT22;5068;51.286;7.518;2023-06-10T06:23:26;15.10;63.70
10057;DHT22;5068;51.286;7.518;2023-06-10T06:24:59;15.20;63.90
10057;DHT22;5068;51.286;7.518;2023-06-10T06:26:33;15.30;63.90
10057;DHT22;5068;51.286;7.518;2023-06-10T06:28:06;15.50;64.10
10057;DHT22;5068;51.286;7.518;2023-06-10T06:29:40;15.50;64.10
10057;DHT22;5068;51.286;7.518;2023-06-10T06:31:14;15.50;63.80
10057;DHT22;5068;51.286;7.518;2023-06-10T06:32:48;15.60;63.90
10057;DHT22;5068;51.286;7.518;2023-06-10T06:34:22;15.70;63.80
10057;DHT22;5068;51.286;7.518;2023-06-10T06:35:55;15.80;63.70
10057;DHT22;5068;51.286;7.518;2023-06-10T06:37:30;15.90;63.10
10057;DHT22;5068;51.286;7.518;2023-06-10T06:39:18;16.00;63.10
10057;DHT22;5068;51.286;7.518;2023-06-10T06:40:51;16.00;62.90
10057;DHT22;5068;51.286;7.518;2023-06-10T06:42:24;16.10;62.60
10057;DHT22;5068;51.286;7.518;2023-06-10T06:44:27;16.20;62.70
10057;DHT22;5068;51.286;7.518;2023-06-10T06:46:00;16.40;62.90
10057;DHT22;5068;51.286;7.518;2023-06-10T06:47:33;16.50;62.70
10057;DHT22;5068;51.286;7.518;2023-06-10T06:49:06;16.50;62.50
10057;DHT22;5068;51.286;7.518;2023-06-10T06:50:39;16.50;62.30
10057;DHT22;5068;51.286;7.518;2023-06-10T06:52:14;16.60;62.20
10057;DHT22;5068;51.286;7.518;2023-06-10T06:53:49;16.70;63.20
10057;DHT22;5068;51.286;7.518;2023-06-10T06:55:23;16.80;62.00
10057;DHT22;5068;51.286;7.518;2023-06-10T06:56:56;16.90;61.70
10057;DHT22;5068;51.286;7.518;2023-06-10T06:58:30;17.00;62.00
10057;DHT22;5068;51.286;7.518;2023-06-10T07:00:05;17.10;61.80
10057;DHT22;5068;51.286;7.518;2023-06-10T07:01:40;17.20;61.90
10057;DHT22;5068;51.286;7.518;2023-06-10T07:03:13;17.20;61.70
10057;DHT22;5068;51.286;7.518;2023-06-10T07:04:46;17.30;61.90
10057;DHT22;5068;51.286;7.518;2023-06-10T07:06:21;17.40;61.70
10057;DHT22;5068;51.286;7.518;2023-06-10T07:07:54;17.50;61.00
10057;DHT22;5068;51.286;7.518;2023-06-10T07:09:29;17.60;61.40
10057;DHT22;5068;51.286;7.518;2023-06-10T07:11:05;17.70;61.00
10057;DHT22;5068;51.286;7.518;2023-06-10T07:12:38;17.70;60.60
10057;DHT22;5068;51.286;7.518;2023-06-10T07:14:12;17.90;60.70
10057;DHT22;5068;51.286;7.518;2023-06-10T07:15:45;17.90;60.90
10057;DHT22;5068;51.286;7.518;2023-06-10T07:17:19;17.90;60.30
10057;DHT22;5068;51.286;7.518;2023-06-10T07:18:52;18.10;60.90
10057;DHT22;5068;51.286;7.518;2023-06-10T07:20:26;18.10;60.60
10057;DHT22;5068;51.286;7.518;2023-06-10T07:22:00;18.20;60.40
10057;DHT22;5068;51.286;7.518;2023-06-10T07:23:34;18.30;60.40
10057;DHT22;5068;51.286;7.518;2023-06-10T07:25:09;18.40;60.40
10057;DHT22;5068;51.286;7.518;2023-06-10T07:26:43;18.60;60.30
10057;DHT22;5068;51.286;7.518;2023-06-10T07:28:16;18.60;60.00
10057;DHT22;5068;51.286;7.518;2023-06-10T07:29:50;18.70;60.00
10057;DHT22;5068;51.286;7.518;2023-06-10T07:31:23;18.90;60.40
10057;DHT22;5068;51.286;7.518;2023-06-10T07:32:57;18.90;61.30
10057;DHT22;5068;51.286;7.518;2023-06-10T07:34:44;19.00;60.40
10057;DHT22;5068;51.286;7.518;2023-06-10T07:36:18;19.10;59.70
10057;DHT22;5068;51.286;7.518;2023-06-10T07:37:51;19.20;60.20
10057;DHT22;5068;51.286;7.518;2023-06-10T07:39:24;19.20;59.70
10057;DHT22;5068;51.286;7.518;2023-06-10T07:41:00;19.40;59.50
10057;DHT22;5068;51.286;7.518;2023-06-10T07:42:35;19.50;59.50
10057;DHT22;5068;51.286;7.518;2023-06-10T07:44:09;19.60;59.00
10057;DHT22;5068;51.286;7.518;2023-06-10T07:45:43;19.70;58.70
10057;DHT22;5068;51.286;7.518;2023-06-10T07:47:17;19.90;59.10
10057;DHT22;5068;51.286;7.518;2023-06-10T07:48:51;20.00;58.80
10057;DHT22;5068;51.286;7.518;2023-06-10T07:50:25;20.10;58.40
10057;DHT22;5068;51.286;7.518;2023-06-10T07:51:58;20.10;58.70
10057;DHT22;5068;51.286;7.518;2023-06-10T07:53:31;20.20;57.90
10057;DHT22;5068;51.286;7.518;2023-06-10T07:55:06;20.30;57.80
10057;DHT22;5068;51.286;7.518;2023-06-10T07:56:42;20.40;57.40
10057;DHT22;5068;51.286;7.518;2023-06-10T07:58:15;20.50;56.80
10057;DHT22;5068;51.286;7.518;2023-06-10T07:59:48;20.60;57.00
10057;DHT22;5068;51.286;7.518;2023-06-10T08:01:23;20.70;56.70
10057;DHT22;5068;51.286;7.518;2023-06-10T08:02:56;20.90;56.70
10057;DHT22;5068;51.286;7.518;2023-06-10T08:04:30;20.90;56.40
10057;DHT22;5068;51.286;7.518;2023-06-10T08:06:04;21.10;56.40
10057;DHT22;5068;51.286;7.518;2023-06-10T08:07:39;21.20;56.10
10057;DHT22;5068;51.286;7.518;2023-06-10T08:09:14;21.30;55.80
10057;DHT22;5068;51.286;7.518;2023-06-10T08:10:47;21.40;55.60
10057;DHT22;5068;51.286;7.518;2023-06-10T08:12:23;21.50;55.40
10057;DHT22;5068;51.286;7.518;2023-06-10T08:13:56;21.60;55.30
10057;DHT22;5068;51.286;7.518;2023-06-10T08:15:30;21.70;55.30
10057;DHT22;5068;51.286;7.518;2023-06-10T08:17:04;21.80;55.40
10057;DHT22;5068;51.286;7.518;2023-06-10T08:18:37;21.90;54.70
10057;DHT22;5068;51.286;7.518;2023-06-10T08:20:11;22.00;54.20
10057;DHT22;5068;51.286;7.518;2023-06-10T08:21:44;22.10;54.20
10057;DHT22;5068;51.286;7.518;2023-06-10T08:23:18;22.20;53.60
10057;DHT22;5068;51.286;7.518;2023-06-10T08:24:52;22.30;53.60
10057;DHT22;5068;51.286;7.518;2023-06-10T08:26:25;22.40;53.40
10057;DHT22;5068;51.286;7.518;2023-06-10T08:28:00;22.50;53.30
10057;DHT22;5068;51.286;7.518;2023-06-10T08:29:33;22.60;53.00
10057;DHT22;5068;51.286;7.518;2023-06-10T08:31:06;22.70;52.80
10057;DHT22;5068;51.286;7.518;2023-06-10T08:32:40;22.80;52.40
10057;DHT22;5068;51.286;7.518;2023-06-10T08:34:13;22.90;52.30
10057;DHT22;5068;51.286;7.518;2023-06-10T08:35:47;23.10;52.00
10057;DHT22;5068;51.286;7.518;2023-06-10T08:37:21;23.20;51.50
10057;DHT22;5068;51.286;7.518;2023-06-10T08:38:54;23.30;51.20
10057;DHT22;5068;51.286;7.518;2023-06-10T08:40:28;23.40;50.90
10057;DHT22;5068;51.286;7.518;2023-06-10T08:42:08;23.40;50.80
10057;DHT22;5068;51.286;7.518;2023-06-10T08:43:56;23.60;50.50
10057;DHT22;5068;51.286;7.518;2023-06-10T08:45:37;23.70;50.40
10057;DHT22;5068;51.286;7.518;2023-06-10T08:47:14;23.70;50.10
10057;DHT22;5068;51.286;7.518;2023-06-10T08:48:52;23.80;49.60
10057;DHT22;5068;51.286;7.518;2023-06-10T08:50:28;24.00;49.80
10057;DHT22;5068;51.286;7.518;2023-06-10T08:52:04;24.00;49.40
10057;DHT22;5068;51.286;7.518;2023-06-10T08:53:49;24.10;49.10
10057;DHT22;5068;51.286;7.518;2023-06-10T08:55:36;24.20;48.50
10057;DHT22;5068;51.286;7.518;2023-06-10T08:57:13;24.30;48.60
10057;DHT22;5068;51.286;7.518;2023-06-10T08:58:47;24.40;48.30
10057;DHT22;5068;51.286;7.518;2023-06-10T09:00:22;24.40;48.10
10057;DHT22;5068;51.286;7.518;2023-06-10T09:01:58;24.60;48.10
10057;DHT22;5068;51.286;7.518;2023-06-10T09:03:32;24.60;48.30
10057;DHT22;5068;51.286;7.518;2023-06-10T09:05:08;24.70;47.60
10057;DHT22;5068;51.286;7.518;2023-06-10T09:06:42;24.80;47.20
10057;DHT22;5068;51.286;7.518;2023-06-10T09:08:17;24.90;47.60
10057;DHT22;5068;51.286;7.518;2023-06-10T09:09:51;24.90;47.00
10057;DHT22;5068;51.286;7.518;2023-06-10T09:11:26;25.00;47.00
10057;DHT22;5068;51.286;7.518;2023-06-10T09:12:59;25.00;46.60
10057;DHT22;5068;51.286;7.518;2023-06-10T09:14:33;25.10;46.70
10057;DHT22;5068;51.286;7.518;2023-06-10T09:16:10;25.10;46.40
10057;DHT22;5068;51.286;7.518;2023-06-10T09:17:44;25.30;46.50
10057;DHT22;5068;51.286;7.518;2023-06-10T09:19:18;25.40;46.20
10057;DHT22;5068;51.286;7.518;2023-06-10T09:20:53;25.40;45.60
10057;DHT22;5068;51.286;7.518;2023-06-10T09:22:26;25.50;45.50
10057;DHT22;5068;51.286;7.518;2023-06-10T09:24:00;25.60;45.80
10057;DHT22;5068;51.286;7.518;2023-06-10T09:25:35;25.60;45.20
10057;DHT22;5068;51.286;7.518;2023-06-10T09:27:10;25.70;44.80
10057;DHT22;5068;51.286;7.518;2023-06-10T09:28:44;25.80;44.20
10057;DHT22;5068;51.286;7.518;2023-06-10T09:30:25;25.80;44.50
10057;DHT22;5068;51.286;7.518;2023-06-10T09:32:01;25.90;44.70
10057;DHT22;5068;51.286;7.518;2023-06-10T09:33:37;25.90;44.00
10057;DHT22;5068;51.286;7.518;2023-06-10T09:35:12;26.00;44.00
10057;DHT22;5068;51.286;7.518;2023-06-10T09:36:45;26.00;44.00
10057;DHT22;5068;51.286;7.518;2023-06-10T09:38:21;26.10;43.80
10057;DHT22;5068;51.286;7.518;2023-06-10T09:40:03;26.10;43.70
10057;DHT22;5068;51.286;7.518;2023-06-10T09:41:40;26.20;43.20
10057;DHT22;5068;51.286;7.518;2023-06-10T09:43:14;26.30;43.30
10057;DHT22;5068;51.286;7.518;2023-06-10T09:44:51;26.30;42.80
10057;DHT22;5068;51.286;7.518;2023-06-10T09:46:30;26.30;42.70
10057;DHT22;5068;51.286;7.518;2023-06-10T09:48:07;26.40;42.20
10057;DHT22;5068;51.286;7.518;2023-06-10T09:49:40;26.40;42.30
10057;DHT22;5068;51.286;7.518;2023-06-10T09:51:14;26.50;42.10
10057;DHT22;5068;51.286;7.518;2023-06-10T09:52:50;26.50;42.20
10057;DHT22;5068;51.286;7.518;2023-06-10T09:54:32;26.50;42.40
10057;DHT22;5068;51.286;7.518;2023-06-10T09:56:06;26.60;41.60
10057;DHT22;5068;51.286;7.518;2023-06-10T09:57:42;26.60;42.10
10057;DHT22;5068;51.286;7.518;2023-06-10T09:59:28;26.60;41.70
10057;DHT22;5068;51.286;7.518;2023-06-10T10:01:09;26.70;41.30
10057;DHT22;5068;51.286;7.518;2023-06-10T10:02:46;26.70;41.10
10057;DHT22;5068;51.286;7.518;2023-06-10T10:04:24;26.80;41.50
10057;DHT22;5068;51.286;7.518;2023-06-10T10:05:59;26.80;40.80
10057;DHT22;5068;51.286;7.518;2023-06-10T10:07:33;26.90;41.40
10057;DHT22;5068;51.286;7.518;2023-06-10T10:09:07;26.90;40.20